Time;durP1;ratioP1;P1;durP2;ratioP2;P2;SDS_P1;SDS_P2;PMS_P1;PMS_P2;Temp;Humidity;BMP_temperature;BMP_pressure;BME280_temperature;BME280_humidity;BME280_pressure;Samples;Min_cycle;Max_cycle;Signal;HPM_P1;HPM_P2
2021/01/11 00:00:55;;;;;;;;;;;;;;;19.43;59.75;101085.72;5041868;28;1640;-69
2021/01/11 00:03:20;;;;;;;;;;;;;;;19.39;59.62;101062.81;5042003;28;1779;-59
2021/01/11 00:05:45;;;;;;;;;;;;;;;19.42;59.93;101050.00;5045186;28;1736;-59
2021/01/11 00:08:11;;;;;;;;;;;;;;;19.40;59.69;101069.91;5043985;28;1632;-69
2021/01/11 00:10:36;;;;;;;;;;;;;;;19.37;59.18;101068.31;5021645;28;1685;-69
2021/01/11 00:13:02;;;;;;;;;;;;;;;19.37;59.81;101049.53;5037077;28;1369;-69
2021/01/11 00:15:27;;;;;;;;;;;;;;;19.37;59.38;101048.69;5020695;28;1673;-66
2021/01/11 00:17:52;;;;;;;;;;;;;;;19.30;59.54;101045.69;5039375;28;1926;-71
2021/01/11 00:20:18;;;;;;;;;;;;;;;19.34;59.44;101048.94;5039345;28;1378;-59
2021/01/11 00:22:44;;;;;;;;;;;;;;;19.27;59.70;101033.38;5037620;28;1386;-59
2021/01/11 00:25:10;;;;;;;;;;;;;;;19.29;59.47;101033.25;5036201;28;1523;-58
2021/01/11 00:27:36;;;;;;;;;;;;;;;19.24;59.31;101022.94;5021595;28;1451;-70
2021/01/11 00:30:02;;;;;;;;;;;;;;;19.26;59.47;101020.97;5037310;28;1380;-58
2021/01/11 00:32:32;;;;;;;;;;;;;;;19.25;59.86;101003.16;5038661;28;1533;-71
2021/01/11 00:34:57;;;;;;;;;;;;;;;19.29;59.46;100987.66;5037262;28;1446;-58
2021/01/11 00:37:23;;;;;;;;;;;;;;;19.28;59.83;100959.19;5047227;28;1752;-69
2021/01/11 00:39:48;;;;;;;;;;;;;;;19.27;59.82;100952.09;5050478;28;1939;-69
2021/01/11 00:42:14;;;;;;;;;;;;;;;19.27;60.21;100974.38;5027005;28;1510;-69
2021/01/11 00:44:40;;;;;;;;;;;;;;;19.27;59.92;100969.03;5042354;28;1760;-69
2021/01/11 00:47:05;;;;;;;;;;;;;;;19.25;60.10;100978.19;5024433;28;1724;-58
2021/01/11 00:49:30;;;;;;;;;;;;;;;19.21;60.14;100945.44;5038805;28;1641;-59
2021/01/11 00:51:56;;;;;;;;;;;;;;;19.22;59.83;100944.47;5043587;28;1684;-58
2021/01/11 00:54:22;;;;;;;;;;;;;;;19.20;59.95;100945.56;5045757;28;1679;-58
2021/01/11 00:56:47;;;;;;;;;;;;;;;19.22;59.76;100965.91;5031651;28;1625;-59
2021/01/11 00:59:13;;;;;;;;;;;;;;;19.19;59.74;100946.56;5044018;28;1882;-58
2021/01/11 01:02:01;;;;;;;;;;;;;;;19.18;59.53;100958.25;5044192;28;1735;-59
2021/01/11 01:04:26;;;;;;;;;;;;;;;19.15;59.33;100977.28;5030571;28;1453;-69
2021/01/11 01:06:52;;;;;;;;;;;;;;;19.15;59.30;100972.78;5033835;28;2395;-58
2021/01/11 01:09:17;;;;;;;;;;;;;;;19.17;59.31;100967.28;5041371;28;1782;-59
2021/01/11 01:11:42;;;;;;;;;;;;;;;19.12;59.24;100951.59;5042376;28;1751;-58
2021/01/11 01:14:08;;;;;;;;;;;;;;;19.12;59.02;100951.59;5049536;28;1649;-58
2021/01/11 01:16:34;;;;;;;;;;;;;;;19.13;59.01;100945.25;5040535;28;1656;-69
2021/01/11 01:18:59;;;;;;;;;;;;;;;19.14;58.71;100920.16;5044421;28;2243;-59
2021/01/11 01:21:25;;;;;;;;;;;;;;;19.13;58.98;100913.06;5040724;28;1645;-59
2021/01/11 01:23:51;;;;;;;;;;;;;;;19.14;58.65;100900.50;5041913;28;1842;-66
2021/01/11 01:26:16;;;;;;;;;;;;;;;19.13;58.31;100901.50;5035125;28;1693;-69
2021/01/11 01:28:42;;;;;;;;;;;;;;;19.16;58.32;100895.88;5042251;28;1831;-69
2021/01/11 01:31:07;;;;;;;;;;;;;;;19.12;58.37;100887.28;5042583;28;1688;-69
2021/01/11 01:33:32;;;;;;;;;;;;;;;19.08;58.42;100873.28;5043295;28;1653;-66
2021/01/11 01:35:58;;;;;;;;;;;;;;;19.07;58.25;100882.28;5038421;28;1692;-68
2021/01/11 01:38:23;;;;;;;;;;;;;;;19.04;58.17;100879.88;5045933;28;1890;-58
2021/01/11 01:40:49;;;;;;;;;;;;;;;19.04;58.28;100887.94;5038391;28;1668;-69
2021/01/11 01:43:14;;;;;;;;;;;;;;;19.08;58.30;100884.00;5042858;28;1767;-58
2021/01/11 01:45:40;;;;;;;;;;;;;;;19.05;58.17;100868.16;5043941;28;1843;-69
2021/01/11 01:48:06;;;;;;;;;;;;;;;19.05;58.11;100865.50;5044224;28;1700;-59
2021/01/11 01:50:31;;;;;;;;;;;;;;;19.04;57.87;100871.00;5039127;28;1755;-59
2021/01/11 01:52:57;;;;;;;;;;;;;;;19.07;57.72;100858.16;5029105;28;1681;-58
2021/01/11 01:55:22;;;;;;;;;;;;;;;19.03;57.76;100842.50;5027591;28;1776;-68
2021/01/11 01:57:50;;;;;;;;;;;;;;;19.05;57.66;100845.88;5046240;28;1890;-58
2021/01/11 02:00:16;;;;;;;;;;;;;;;19.03;57.66;100854.06;5046061;28;1634;-69
2021/01/11 02:02:42;;;;;;;;;;;;;;;19.03;57.70;100862.09;5042778;28;1787;-68
2021/01/11 02:05:08;;;;;;;;;;;;;;;19.02;57.56;100868.47;5043423;28;1755;-58
2021/01/11 02:07:40;;;;;;;;;;;;;;;19.04;57.55;100890.63;5042706;28;1703;-69
2021/01/11 02:10:05;;;;;;;;;;;;;;;19.03;57.70;100906.81;5045219;28;1739;-58
2021/01/11 02:12:41;;;;;;;;;;;;;;;19.01;57.36;100923.03;5040076;28;1573;-69
2021/01/11 02:15:18;;;;;;;;;;;;;;;19.00;57.26;100950.81;5036932;28;1473;-58
2021/01/11 02:17:50;;;;;;;;;;;;;;;18.98;57.35;100978.72;5020737;28;1914;-58
2021/01/11 02:20:19;;;;;;;;;;;;;;;18.97;57.22;100996.63;5016470;28;1723;-58
2021/01/11 02:23:11;;;;;;;;;;;;;;;18.95;57.46;100995.91;5016274;28;1421;-58
2021/01/11 02:25:48;;;;;;;;;;;;;;;18.96;57.24;100978.88;5032779;28;1528;-58
2021/01/11 02:28:28;;;;;;;;;;;;;;;18.96;57.28;100949.38;5035677;28;1728;-69
2021/01/11 02:30:55;;;;;;;;;;;;;;;18.96;57.12;100916.34;5039495;28;1596;-68
2021/01/11 02:33:20;;;;;;;;;;;;;;;18.97;56.85;100878.72;5046540;28;1672;-68
2021/01/11 02:35:45;;;;;;;;;;;;;;;18.98;57.00;100855.44;5048646;28;1847;-69
2021/01/11 02:38:11;;;;;;;;;;;;;;;18.96;57.01;100852.03;5046245;28;1941;-69
2021/01/11 02:40:36;;;;;;;;;;;;;;;18.96;57.10;100825.25;5050203;28;1667;-58
2021/01/11 02:43:02;;;;;;;;;;;;;;;18.97;57.07;100853.75;5050222;28;1851;-58
2021/01/11 02:45:27;;;;;;;;;;;;;;;18.95;56.82;100867.28;5047185;28;1779;-69
2021/01/11 02:48:19;;;;;;;;;;;;;;;18.97;56.69;100880.56;5055092;28;1792;-68
2021/01/11 02:50:49;;;;;;;;;;;;;;;18.95;56.91;100871.78;5039185;28;1681;-59
2021/01/11 02:53:35;;;;;;;;;;;;;;;18.97;56.86;100869.84;5046508;28;1861;-59
2021/01/11 02:56:02;;;;;;;;;;;;;;;18.97;56.69;100885.91;5045523;28;1735;-58
2021/01/11 02:58:46;;;;;;;;;;;;;;;18.97;56.72;100916.22;5036835;28;1931;-58
2021/01/11 03:01:14;;;;;;;;;;;;;;;18.95;56.72;100931.59;5048581;23;2109;-48
2021/01/11 03:03:40;;;;;;;;;;;;;;;18.99;56.47;100953.63;5049509;28;1889;-48
2021/01/11 03:06:11;;;;;;;;;;;;;;;18.96;56.34;100948.50;5044412;28;1875;-48
2021/01/11 03:08:36;;;;;;;;;;;;;;;18.92;56.41;100921.16;5047721;28;1915;-48
2021/01/11 03:11:01;;;;;;;;;;;;;;;18.90;56.39;100887.41;5054057;23;3689;-68
2021/01/11 03:13:27;;;;;;;;;;;;;;;18.92;56.18;100894.34;5035966;28;1826;-68
2021/01/11 03:15:52;;;;;;;;;;;;;;;18.91;56.55;100907.88;5046963;28;1737;-58
2021/01/11 03:18:17;;;;;;;;;;;;;;;18.91;56.33;100902.53;5046730;28;1906;-58
2021/01/11 03:20:43;;;;;;;;;;;;;;;18.90;56.29;100911.53;5043140;28;1632;-68
2021/01/11 03:23:08;;;;;;;;;;;;;;;18.91;55.92;100903.38;5048016;28;1636;-58
2021/01/11 03:25:34;;;;;;;;;;;;;;;18.86;56.61;100887.69;5029780;28;1695;-68
2021/01/11 03:27:59;;;;;;;;;;;;;;;18.70;58.65;100906.00;5042254;28;1657;-68
2021/01/11 03:30:25;;;;;;;;;;;;;;;18.52;59.25;100912.91;5033707;28;1648;-58
2021/01/11 03:32:50;;;;;;;;;;;;;;;18.43;59.54;100925.25;5045445;28;1692;-68
2021/01/11 03:35:16;;;;;;;;;;;;;;;18.36;59.73;100940.97;5026125;28;1624;-58
2021/01/11 03:37:41;;;;;;;;;;;;;;;18.36;60.90;100972.25;5048830;28;1886;-58
2021/01/11 03:40:07;;;;;;;;;;;;;;;18.33;60.18;100975.19;5041012;28;1664;-58
2021/01/11 03:42:35;;;;;;;;;;;;;;;18.33;60.25;100983.22;5044103;28;1660;-68
2021/01/11 03:45:01;;;;;;;;;;;;;;;18.31;61.16;100966.44;5044848;28;1653;-68
2021/01/11 03:47:26;;;;;;;;;;;;;;;18.29;60.29;100934.44;5046968;28;1810;-69
2021/01/11 03:49:51;;;;;;;;;;;;;;;18.29;61.36;100927.25;5044956;28;1755;-68
2021/01/11 03:52:17;;;;;;;;;;;;;;;18.34;61.63;100944.75;5028055;28;1561;-58
2021/01/11 03:54:42;;;;;;;;;;;;;;;18.30;61.15;100941.47;5049131;28;1703;-68
2021/01/11 03:57:07;;;;;;;;;;;;;;;18.28;61.07;100959.47;5022247;28;1644;-69
2021/01/11 03:59:33;;;;;;;;;;;;;;;18.27;61.80;100964.00;5048063;28;1898;-58
2021/01/11 04:01:58;;;;;;;;;;;;;;;18.30;61.51;100984.31;5059759;28;1629;-68
2021/01/11 04:04:24;;;;;;;;;;;;;;;18.27;61.23;100974.72;5065868;28;1803;-58
2021/01/11 04:06:52;;;;;;;;;;;;;;;18.25;61.44;100978.50;5063702;28;1743;-58
2021/01/11 04:09:17;;;;;;;;;;;;;;;18.24;61.64;100996.38;5065586;28;1744;-58
2021/01/11 04:11:43;;;;;;;;;;;;;;;18.25;61.36;101003.44;5056389;28;1643;-67
2021/01/11 04:14:08;;;;;;;;;;;;;;;18.25;61.62;101019.50;5085081;28;1828;-68
2021/01/11 04:16:33;;;;;;;;;;;;;;;18.23;61.99;101026.78;5065971;28;1726;-69
2021/01/11 04:18:59;;;;;;;;;;;;;;;18.26;62.19;101042.63;5085053;28;1981;-70
2021/01/11 04:21:24;;;;;;;;;;;;;;;18.20;61.70;101042.25;5081067;28;1743;-58
2021/01/11 04:23:49;;;;;;;;;;;;;;;18.20;62.48;101043.09;5068253;28;1492;-67
2021/01/11 04:26:15;;;;;;;;;;;;;;;18.19;62.72;101030.69;5086071;28;1813;-58
2021/01/11 04:28:40;;;;;;;;;;;;;;;18.18;63.58;101010.25;5087737;28;1726;-59
2021/01/11 04:31:06;;;;;;;;;;;;;;;18.20;62.90;101010.97;5088675;28;1793;-58
2021/01/11 04:33:31;;;;;;;;;;;;;;;18.20;63.58;100994.91;5077111;28;1434;-69
2021/01/11 04:35:57;;;;;;;;;;;;;;;18.18;63.80;100975.44;5080562;28;1439;-70
2021/01/11 04:38:22;;;;;;;;;;;;;;;18.23;63.57;100967.06;5083355;28;1941;-64
2021/01/11 04:40:48;;;;;;;;;;;;;;;18.15;63.45;100951.63;5085453;28;1730;-59
2021/01/11 04:43:15;;;;;;;;;;;;;;;18.08;64.08;100958.44;5072479;28;1694;-58
2021/01/11 04:45:40;;;;;;;;;;;;;;;18.09;64.33;100920.00;5086385;28;1654;-57
2021/01/11 04:48:06;;;;;;;;;;;;;;;18.12;64.10;100886.78;5089698;28;1731;-58
2021/01/11 04:50:31;;;;;;;;;;;;;;;18.08;65.06;100860.28;5087538;28;1832;-58
2021/01/11 04:52:57;;;;;;;;;;;;;;;18.09;65.34;100867.34;5087071;28;1725;-72
2021/01/11 04:55:23;;;;;;;;;;;;;;;18.11;64.33;100887.78;5085006;28;1761;-58
2021/01/11 04:57:55;;;;;;;;;;;;;;;18.09;65.57;100906.63;5069660;28;1870;-58
2021/01/11 05:00:23;;;;;;;;;;;;;;;18.05;65.49;100899.84;5088435;28;1754;-58
2021/01/11 05:02:55;;;;;;;;;;;;;;;18.06;65.18;100922.94;5082855;28;1738;-58
2021/01/11 05:05:21;;;;;;;;;;;;;;;18.07;64.48;100908.59;5071079;28;1687;-58
2021/01/11 05:07:47;;;;;;;;;;;;;;;18.04;64.22;100898.97;5078264;28;1588;-72
2021/01/11 05:10:19;;;;;;;;;;;;;;;18.05;64.58;100906.03;5081594;28;1734;-65
2021/01/11 05:12:51;;;;;;;;;;;;;;;18.05;65.13;100894.47;5084534;28;1690;-71
2021/01/11 05:15:18;;;;;;;;;;;;;;;18.07;65.21;100908.59;5080204;28;1785;-58
2021/01/11 05:17:44;;;;;;;;;;;;;;;18.07;64.52;100916.63;5058375;28;1992;-60
2021/01/11 05:20:11;;;;;;;;;;;;;;;18.08;64.33;100927.19;5073650;28;1360;-60
2021/01/11 05:22:36;;;;;;;;;;;;;;;18.10;64.27;100929.72;5062185;28;1523;-73
2021/01/11 05:25:11;;;;;;;;;;;;;;;18.07;64.66;100936.19;5078607;28;1501;-73
2021/01/11 05:27:37;;;;;;;;;;;;;;;18.11;63.95;100936.78;5075307;28;1467;-73
2021/01/11 05:30:02;;;;;;;;;;;;;;;18.06;64.73;100934.50;5080126;28;1389;-58
2021/01/11 05:32:27;;;;;;;;;;;;;;;18.07;64.58;100925.50;5079355;28;1540;-72
2021/01/11 05:34:53;;;;;;;;;;;;;;;18.04;65.33;100925.72;5076935;28;1471;-73
2021/01/11 05:37:38;;;;;;;;;;;;;;;18.02;65.21;100925.00;5075315;28;1581;-73
2021/01/11 05:40:04;;;;;;;;;;;;;;;18.04;64.94;100936.44;5066794;28;1627;-65
2021/01/11 05:42:29;;;;;;;;;;;;;;;18.10;64.31;100945.78;5081995;28;1750;-70
2021/01/11 05:45:07;;;;;;;;;;;;;;;18.06;64.76;100952.38;5081383;28;1753;-59
2021/01/11 05:47:33;;;;;;;;;;;;;;;18.02;64.86;100954.44;5078727;28;1703;-59
2021/01/11 05:50:06;;;;;;;;;;;;;;;18.00;65.73;100960.88;5076559;28;1519;-69
2021/01/11 05:52:31;;;;;;;;;;;;;;;18.00;65.60;100955.53;5081069;28;1434;-58
2021/01/11 05:54:57;;;;;;;;;;;;;;;17.99;65.47;100956.53;5082438;28;1722;-69
2021/01/11 05:57:22;;;;;;;;;;;;;;;17.99;65.99;100943.16;5079815;28;1957;-59
2021/01/11 05:59:47;;;;;;;;;;;;;;;17.98;65.39;100941.44;5083063;28;1917;-70
2021/01/11 06:02:13;;;;;;;;;;;;;;;18.02;65.99;100926.84;5079751;28;1879;-59
2021/01/11 06:04:38;;;;;;;;;;;;;;;18.12;65.40;100932.28;5069530;28;1805;-59
2021/01/11 06:07:04;;;;;;;;;;;;;;;18.19;64.69;100954.91;5066233;28;1759;-59
2021/01/11 06:09:32;;;;;;;;;;;;;;;18.22;64.06;100934.09;5067572;28;1710;-58
2021/01/11 06:12:00;;;;;;;;;;;;;;;18.34;63.77;100950.09;5082663;28;1485;-58
2021/01/11 06:14:25;;;;;;;;;;;;;;;18.44;63.85;100957.28;5080928;28;1742;-59
2021/01/11 06:16:50;;;;;;;;;;;;;;;18.39;63.42;100950.59;5079279;28;1643;-70
2021/01/11 06:19:16;;;;;;;;;;;;;;;18.39;63.39;100913.09;5081157;28;1972;-61
2021/01/11 06:21:59;;;;;;;;;;;;;;;18.48;62.72;100902.47;5080222;28;1651;-65
2021/01/11 06:24:24;;;;;;;;;;;;;;;18.56;62.85;100879.53;5085264;28;1695;-59
2021/01/11 06:26:49;;;;;;;;;;;;;;;18.63;62.64;100894.97;5081883;28;1754;-66
2021/01/11 06:29:44;;;;;;;;;;;;;;;18.66;62.67;100909.91;5084307;28;1599;-59
2021/01/11 06:32:17;;;;;;;;;;;;;;;18.66;62.18;100937.56;5056592;28;1625;-67
2021/01/11 06:34:42;;;;;;;;;;;;;;;18.68;62.80;100932.94;5074148;28;1436;-59
2021/01/11 06:37:18;;;;;;;;;;;;;;;18.74;62.80;100946.78;5080262;28;1794;-65
2021/01/11 06:39:45;;;;;;;;;;;;;;;18.79;62.88;100948.13;5056906;28;2528;-65
2021/01/11 06:42:11;;;;;;;;;;;;;;;18.82;62.61;100966.63;5074499;28;1737;-64
2021/01/11 06:44:38;;;;;;;;;;;;;;;18.85;62.68;100987.78;5074534;28;1507;-64
2021/01/11 06:47:04;;;;;;;;;;;;;;;18.80;63.55;100982.00;5074881;28;1474;-58
2021/01/11 06:49:30;;;;;;;;;;;;;;;18.79;63.27;100982.06;5073102;28;1361;-61
2021/01/11 06:52:15;;;;;;;;;;;;;;;18.76;63.98;100990.34;5073975;28;1393;-58
2021/01/11 06:54:45;;;;;;;;;;;;;;;18.74;63.63;100987.84;5074706;28;1841;-65
2021/01/11 06:57:17;;;;;;;;;;;;;;;18.70;63.81;100989.03;5075491;28;1540;-58
2021/01/11 06:59:44;;;;;;;;;;;;;;;18.69;63.38;100988.19;5055262;28;1897;-65
2021/01/11 07:02:25;;;;;;;;;;;;;;;18.69;63.74;100992.72;5072867;28;1473;-58
2021/01/11 07:04:51;;;;;;;;;;;;;;;18.65;63.26;101002.81;5075876;28;1686;-58
2021/01/11 07:07:24;;;;;;;;;;;;;;;18.65;63.56;101021.56;5072311;28;1415;-65
2021/01/11 07:09:56;;;;;;;;;;;;;;;18.69;63.66;101003.44;5073122;28;1218;-60
2021/01/11 07:12:22;;;;;;;;;;;;;;;18.80;63.64;101010.59;5056291;28;1411;-66
2021/01/11 07:14:53;;;;;;;;;;;;;;;18.82;63.48;100997.91;5054009;28;1350;-58
2021/01/11 07:17:38;;;;;;;;;;;;;;;18.82;63.39;101000.59;5059500;28;1351;-58
2021/01/11 07:20:04;;;;;;;;;;;;;;;18.87;63.49;100996.56;5058527;28;1906;-58
2021/01/11 07:22:30;;;;;;;;;;;;;;;18.91;63.35;101005.19;5076252;28;1392;-58
2021/01/11 07:24:55;;;;;;;;;;;;;;;18.90;63.79;101003.50;5076382;28;1426;-58
2021/01/11 07:27:20;;;;;;;;;;;;;;;18.96;63.67;101002.97;5055853;28;1451;-58
2021/01/11 07:29:46;;;;;;;;;;;;;;;19.03;63.43;101005.97;5073501;28;1376;-56
2021/01/11 07:32:11;;;;;;;;;;;;;;;19.13;63.51;100998.00;5055578;28;1340;-64
2021/01/11 07:34:38;;;;;;;;;;;;;;;19.34;62.69;101024.81;5072860;28;1647;-65
2021/01/11 07:37:03;;;;;;;;;;;;;;;19.42;62.78;101028.56;5071772;28;1353;-68
2021/01/11 07:39:33;;;;;;;;;;;;;;;19.26;64.87;101042.41;5075386;28;1959;-62
2021/01/11 07:42:06;;;;;;;;;;;;;;;19.16;64.82;101057.59;5056149;28;1352;-63
2021/01/11 07:44:31;;;;;;;;;;;;;;;19.07;64.75;101064.56;5082028;28;1403;-58
2021/01/11 07:46:58;;;;;;;;;;;;;;;19.10;65.18;101073.31;5073050;28;1428;-58
2021/01/11 07:49:24;;;;;;;;;;;;;;;19.08;65.03;101079.66;5071298;28;1846;-59
2021/01/11 07:51:50;;;;;;;;;;;;;;;19.05;64.45;101053.13;5058294;28;1647;-62
2021/01/11 07:54:19;;;;;;;;;;;;;;;19.01;64.86;101065.06;5076093;28;1440;-58
2021/01/11 07:56:45;;;;;;;;;;;;;;;18.99;64.89;101053.63;5058447;28;1590;-58
2021/01/11 07:59:11;;;;;;;;;;;;;;;18.95;64.86;101062.91;5078104;28;1885;-58
2021/01/11 08:01:37;;;;;;;;;;;;;;;18.95;65.10;101028.06;5079045;28;1480;-58
2021/01/11 08:04:03;;;;;;;;;;;;;;;18.92;64.80;101044.41;5073750;28;1524;-62
2021/01/11 08:06:28;;;;;;;;;;;;;;;18.94;64.27;101046.94;5075219;28;1377;-58
2021/01/11 08:08:55;;;;;;;;;;;;;;;18.91;64.32;101036.50;5056704;28;1380;-58
2021/01/11 08:11:21;;;;;;;;;;;;;;;18.87;64.46;101035.91;5074863;28;1424;-63
2021/01/11 08:13:46;;;;;;;;;;;;;;;18.84;64.39;101036.16;5075970;28;1382;-62
2021/01/11 08:16:12;;;;;;;;;;;;;;;18.86;64.36;101034.19;5076740;28;1569;-63
2021/01/11 08:18:38;;;;;;;;;;;;;;;18.86;63.80;101028.81;5080265;28;1898;-63
2021/01/11 08:21:11;;;;;;;;;;;;;;;18.85;64.71;101037.88;5078206;28;1399;-58
2021/01/11 08:23:37;;;;;;;;;;;;;;;18.81;64.49;101056.00;5079289;28;1380;-57
2021/01/11 08:26:11;;;;;;;;;;;;;;;18.79;64.69;101057.97;5077439;28;1414;-62
2021/01/11 08:28:37;;;;;;;;;;;;;;;18.78;65.76;101068.78;5074972;28;1174;-62
2021/01/11 08:31:03;;;;;;;;;;;;;;;18.79;66.10;101070.50;5077849;28;1390;-58
2021/01/11 08:33:30;;;;;;;;;;;;;;;18.81;66.42;101085.50;5077114;28;1422;-57
2021/01/11 08:36:14;;;;;;;;;;;;;;;18.87;65.30;101084.97;5081614;28;1738;-57
2021/01/11 08:39:05;;;;;;;;;;;;;;;18.92;65.38;101091.78;5080325;28;1889;-56
2021/01/11 08:41:34;;;;;;;;;;;;;;;18.88;65.41;101088.53;5072223;28;1624;-58
2021/01/11 08:44:00;;;;;;;;;;;;;;;18.89;65.43;101098.25;5056576;28;1487;-66
2021/01/11 08:46:45;;;;;;;;;;;;;;;18.90;65.84;101091.94;5075189;28;1432;-57
2021/01/11 08:49:10;;;;;;;;;;;;;;;18.88;65.43;101107.28;5076490;28;1428;-57
2021/01/11 08:51:35;;;;;;;;;;;;;;;18.88;65.41;101102.78;5078607;28;1476;-57
2021/01/11 08:54:01;;;;;;;;;;;;;;;18.88;65.17;101112.66;5075421;28;1743;-57
2021/01/11 08:56:29;;;;;;;;;;;;;;;18.81;65.30;101123.00;5076599;28;1431;-66
2021/01/11 08:58:54;;;;;;;;;;;;;;;18.78;65.11;101117.88;5074339;28;1918;-57
2021/01/11 09:01:26;;;;;;;;;;;;;;;18.82;65.01;101139.91;5074683;28;1412;-57
2021/01/11 09:03:56;;;;;;;;;;;;;;;18.81;65.14;101147.13;5075431;28;1272;-57
2021/01/11 09:06:45;;;;;;;;;;;;;;;18.73;64.71;101141.50;5076020;28;780;-57
2021/01/11 09:09:18;;;;;;;;;;;;;;;18.68;65.11;101141.88;5075715;28;1393;-67
2021/01/11 09:11:44;;;;;;;;;;;;;;;18.64;64.87;101152.94;5074732;28;1360;-66
2021/01/11 09:14:15;;;;;;;;;;;;;;;18.69;64.83;101132.00;5074293;28;1258;-57
2021/01/11 09:16:41;;;;;;;;;;;;;;;18.63;64.70;101128.00;5074099;28;1466;-67
2021/01/11 09:19:07;;;;;;;;;;;;;;;18.62;64.41;101137.03;5074090;28;1909;-57
2021/01/11 09:21:33;;;;;;;;;;;;;;;18.57;65.04;101135.69;5074045;28;1238;-67
2021/01/11 09:23:58;;;;;;;;;;;;;;;18.59;64.71;101123.88;5073671;28;1360;-67
2021/01/11 09:26:23;;;;;;;;;;;;;;;18.58;64.90;101116.81;5068459;28;1321;-57
2021/01/11 09:28:49;;;;;;;;;;;;;;;18.57;64.42;101120.47;5074216;28;1383;-66
2021/01/11 09:31:16;;;;;;;;;;;;;;;18.62;64.41;101134.34;5078876;28;1698;-57
2021/01/11 09:33:41;;;;;;;;;;;;;;;18.58;64.55;101115.94;5074950;28;1624;-66
2021/01/11 09:36:06;;;;;;;;;;;;;;;18.54;64.56;101131.41;5074686;28;1494;-66
2021/01/11 09:38:31;;;;;;;;;;;;;;;18.57;64.27;101131.16;5077881;28;1955;-66
2021/01/11 09:40:57;;;;;;;;;;;;;;;18.59;64.41;101123.03;5077352;28;1620;-67
2021/01/11 09:43:22;;;;;;;;;;;;;;;18.65;64.07;101120.69;5072108;28;1453;-68
2021/01/11 09:45:48;;;;;;;;;;;;;;;18.66;63.88;101119.72;5073854;28;1369;-68
2021/01/11 09:48:13;;;;;;;;;;;;;;;18.78;63.74;101114.31;5077010;28;1495;-57
2021/01/11 09:50:40;;;;;;;;;;;;;;;18.85;63.59;101118.25;5056339;28;1635;-57
2021/01/11 09:53:07;;;;;;;;;;;;;;;18.92;63.29;101124.81;5074007;28;1660;-57
2021/01/11 09:55:32;;;;;;;;;;;;;;;18.88;63.50;101137.59;5072520;28;1655;-68
2021/01/11 09:58:01;;;;;;;;;;;;;;;18.86;64.34;101141.38;5071904;28;1889;-58
2021/01/11 10:00:27;;;;;;;;;;;;;;;18.84;63.80;101148.69;5071112;28;1156;-58
2021/01/11 10:02:52;;;;;;;;;;;;;;;18.84;63.90;101157.59;5075090;28;1482;-57
2021/01/11 10:05:17;;;;;;;;;;;;;;;18.81;64.18;101155.16;5073933;28;1477;-57
2021/01/11 10:07:45;;;;;;;;;;;;;;;18.84;63.88;101148.69;5073719;28;1640;-69
2021/01/11 10:10:12;;;;;;;;;;;;;;;18.82;63.97;101148.84;5072817;28;1405;-57
2021/01/11 10:12:37;;;;;;;;;;;;;;;18.83;64.00;101157.72;5072893;28;1628;-57
2021/01/11 10:15:03;;;;;;;;;;;;;;;18.87;63.86;101175.25;5056107;28;1393;-58
2021/01/11 10:17:29;;;;;;;;;;;;;;;18.87;63.72;101159.16;5072321;28;1529;-57
2021/01/11 10:19:55;;;;;;;;;;;;;;;18.83;63.87;101176.47;5071444;28;1910;-69
2021/01/11 10:22:20;;;;;;;;;;;;;;;18.82;63.80;101166.72;5074277;28;1632;-68
2021/01/11 10:24:48;;;;;;;;;;;;;;;18.77;64.16;101163.53;5075170;28;1588;-57
2021/01/11 10:27:13;;;;;;;;;;;;;;;18.78;64.12;101167.91;5074532;28;1540;-69
2021/01/11 10:29:38;;;;;;;;;;;;;;;18.74;64.43;101155.72;5074449;28;1408;-69
2021/01/11 10:32:04;;;;;;;;;;;;;;;18.73;64.37;101162.09;5074137;28;1659;-57
2021/01/11 10:34:29;;;;;;;;;;;;;;;18.66;64.18;101151.88;5072515;28;1404;-58
2021/01/11 10:36:55;;;;;;;;;;;;;;;18.69;64.59;101150.75;5073658;28;1622;-69
2021/01/11 10:39:21;;;;;;;;;;;;;;;18.69;64.83;101156.13;5073744;28;1881;-58
2021/01/11 10:41:48;;;;;;;;;;;;;;;18.67;64.61;101147.34;5054109;28;1356;-69
2021/01/11 10:44:13;;;;;;;;;;;;;;;18.69;65.26;101146.25;5079014;28;1695;-57
2021/01/11 10:46:38;;;;;;;;;;;;;;;18.69;65.44;101140.88;5072272;28;1343;-57
2021/01/11 10:49:04;;;;;;;;;;;;;;;18.73;65.40;101127.25;5074307;28;1540;-69
2021/01/11 10:51:32;;;;;;;;;;;;;;;18.73;65.64;101127.25;5072663;28;1346;-57
2021/01/11 10:53:57;;;;;;;;;;;;;;;18.68;65.54;101128.50;5075262;28;1390;-57
2021/01/11 10:56:22;;;;;;;;;;;;;;;18.69;65.88;101135.53;5078493;28;1596;-68
2021/01/11 10:58:48;;;;;;;;;;;;;;;18.74;65.96;101131.63;5077273;28;1890;-58
2021/01/11 11:01:14;;;;;;;;;;;;;;;18.76;65.55;101135.03;5075126;28;1432;-68
2021/01/11 11:03:40;;;;;;;;;;;;;;;18.75;65.61;101128.81;5078311;28;1344;-58
2021/01/11 11:06:05;;;;;;;;;;;;;;;18.74;65.36;101115.56;5077075;28;1428;-68
2021/01/11 11:08:30;;;;;;;;;;;;;;;18.73;65.64;101111.19;5074419;28;1324;-58
2021/01/11 11:10:56;;;;;;;;;;;;;;;18.74;65.73;101105.72;5076945;28;1593;-58
2021/01/11 11:13:21;;;;;;;;;;;;;;;18.74;65.67;101120.91;5076955;28;1321;-67
2021/01/11 11:15:47;;;;;;;;;;;;;;;18.69;65.49;101105.22;5076914;28;1393;-68
2021/01/11 11:18:13;;;;;;;;;;;;;;;18.67;65.46;101102.66;5071629;28;1906;-68
2021/01/11 11:20:38;;;;;;;;;;;;;;;18.70;65.43;101093.50;5076054;28;1584;-68
2021/01/11 11:23:04;;;;;;;;;;;;;;;18.67;65.21;101110.69;5075283;28;1480;-58
2021/01/11 11:25:29;;;;;;;;;;;;;;;18.71;65.28;101115.81;5074935;28;1333;-57
2021/01/11 11:27:55;;;;;;;;;;;;;;;18.71;65.37;101139.94;5077512;28;1380;-67
2021/01/11 11:30:20;;;;;;;;;;;;;;;18.81;65.00;101138.22;5075527;28;1529;-68
2021/01/11 11:32:46;;;;;;;;;;;;;;;18.84;64.56;101124.56;5076413;28;1640;-68
2021/01/11 11:35:12;;;;;;;;;;;;;;;18.86;64.60;101152.97;5067436;28;2477;-68
2021/01/11 11:37:37;;;;;;;;;;;;;;;18.87;64.75;101137.72;5071014;28;1772;-57
2021/01/11 11:40:03;;;;;;;;;;;;;;;18.90;64.32;101150.88;5067992;28;1889;-58
2021/01/11 11:42:38;;;;;;;;;;;;;;;18.92;64.36;101166.81;5068806;28;1841;-68
2021/01/11 11:45:08;;;;;;;;;;;;;;;18.92;64.36;101154.28;5069811;28;1748;-57
2021/01/11 11:47:33;;;;;;;;;;;;;;;18.90;64.25;101163.41;5073910;28;1537;-58
2021/01/11 11:49:59;;;;;;;;;;;;;;;18.84;64.66;101154.03;5067693;28;1597;-68
2021/01/11 11:52:24;;;;;;;;;;;;;;;18.84;64.89;101154.91;5072851;28;1836;-57
2021/01/11 11:54:49;;;;;;;;;;;;;;;18.80;65.17;101148.09;5069334;28;1500;-57
2021/01/11 11:57:15;;;;;;;;;;;;;;;18.78;65.31;101133.06;5067276;28;1766;-57
2021/01/11 11:59:40;;;;;;;;;;;;;;;18.79;65.09;101158.91;5068266;28;2028;-57
2021/01/11 12:02:05;;;;;;;;;;;;;;;18.78;65.16;101158.06;5069427;28;1583;-68
2021/01/11 12:04:30;;;;;;;;;;;;;;;18.80;65.14;101171.34;5065833;28;1541;-68
2021/01/11 12:06:56;;;;;;;;;;;;;;;18.77;64.97;101158.19;5068340;28;1628;-57
2021/01/11 12:09:21;;;;;;;;;;;;;;;18.83;65.07;101163.06;5073163;28;1460;-67
2021/01/11 12:11:50;;;;;;;;;;;;;;;18.75;65.13;101176.22;5074549;28;1676;-57
2021/01/11 12:14:16;;;;;;;;;;;;;;;18.72;65.03;101168.41;5073184;28;1272;-68
2021/01/11 12:16:41;;;;;;;;;;;;;;;18.74;65.14;101170.00;5054498;28;1334;-57
2021/01/11 12:19:06;;;;;;;;;;;;;;;18.72;65.43;101192.50;5074447;28;1980;-57
2021/01/11 12:21:33;;;;;;;;;;;;;;;18.74;65.25;101182.53;5054851;28;1687;-58
2021/01/11 12:23:58;;;;;;;;;;;;;;;18.72;65.24;101176.44;5073324;28;1261;-57
2021/01/11 12:26:24;;;;;;;;;;;;;;;18.67;65.34;101166.09;5077562;28;1321;-68
2021/01/11 12:28:49;;;;;;;;;;;;;;;18.68;65.18;101165.13;5073994;28;1330;-57
2021/01/11 12:31:14;;;;;;;;;;;;;;;18.66;64.88;101151.88;5068614;28;1632;-57
2021/01/11 12:33:40;;;;;;;;;;;;;;;18.64;64.76;101143.09;5074464;28;1384;-57
2021/01/11 12:36:05;;;;;;;;;;;;;;;18.66;65.23;101156.34;5069505;28;1344;-58
2021/01/11 12:38:30;;;;;;;;;;;;;;;18.65;65.29;101168.91;5070997;28;1978;-57
2021/01/11 12:40:56;;;;;;;;;;;;;;;18.51;64.05;101179.88;5055122;28;1601;-67
2021/01/11 12:43:21;;;;;;;;;;;;;;;17.73;63.57;101192.16;5071799;28;1401;-74
2021/01/11 12:45:48;;;;;;;;;;;;;;;17.15;63.12;101201.84;5072796;28;1385;-58
2021/01/11 12:48:13;;;;;;;;;;;;;;;16.99;66.43;101199.44;5075126;28;1335;-64